Terminal Aerodrome Forecast
Issued by NWS Grand Forks, ND

Home | Current Version | Previous Version | Text Only | Print | Product List | Glossary On
Versions: 1 2 3 4 5 6 7 8 9 10 11 12 13 14 15 16
397
FTUS43 KFGF 061721
TAFFAR
TAF
KFAR 061721Z 0618/0718 35020G32KT P6SM SCT120
     FM070100 01015G22KT P6SM SCT120
     FM070300 01010KT P6SM SCT120
     FM070500 VRB05KT P6SM FEW250=

USA.gov is the U.S. government's official web portal to all federal, state and local government web resources and services.